createdAt,value
2018-12-04T00:00:28.982Z,94973.62
2018-12-04T00:02:55.892Z,94973.14
2018-12-04T00:05:22.829Z,94965.61
2018-12-04T00:07:49.760Z,94966.02
2018-12-04T00:10:16.685Z,94958.48
2018-12-04T00:12:43.603Z,94957.46
2018-12-04T00:15:10.523Z,94960.77
2018-12-04T00:17:37.443Z,94965.55
2018-12-04T00:20:04.377Z,94961.50
2018-12-04T00:22:31.297Z,94970.68
2018-12-04T00:24:58.223Z,94967.73
2018-12-04T00:27:25.199Z,94962.60
2018-12-04T00:29:52.116Z,94964.97
2018-12-04T00:32:19.036Z,94967.84
2018-12-04T00:34:45.954Z,94963.62
2018-12-04T00:37:12.877Z,94960.38
2018-12-04T00:39:39.788Z,94962.20
2018-12-04T00:42:06.704Z,94957.83
2018-12-04T00:44:33.615Z,94950.72
2018-12-04T00:47:00.527Z,94950.72
2018-12-04T00:49:27.456Z,94947.05
2018-12-04T00:51:54.365Z,94948.98
2018-12-04T00:54:21.284Z,94948.98
2018-12-04T00:56:48.207Z,94948.98
2018-12-04T00:59:15.113Z,94946.98
2018-12-04T01:01:42.028Z,94943.19
2018-12-04T01:04:08.944Z,94939.16
2018-12-04T01:06:35.844Z,94933.66
2018-12-04T01:09:02.765Z,94929.47
2018-12-04T01:11:29.660Z,94932.31
2018-12-04T01:13:56.577Z,94925.83
2018-12-04T01:16:23.497Z,94922.04
2018-12-04T01:18:50.400Z,94919.25
2018-12-04T01:21:17.323Z,94913.46
2018-12-04T01:23:44.224Z,94904.98
2018-12-04T01:26:11.128Z,94907.13
2018-12-04T01:28:38.045Z,94908.87
2018-12-04T01:31:04.963Z,94911.16
2018-12-04T01:33:31.883Z,94908.72
2018-12-04T01:35:58.810Z,94902.05
2018-12-04T01:38:25.718Z,94905.95
2018-12-04T01:40:52.634Z,94900.08
2018-12-04T01:43:19.541Z,94900.80
2018-12-04T01:45:46.466Z,94900.80
2018-12-04T01:48:13.395Z,94899.54
2018-12-04T01:50:40.299Z,94901.67
2018-12-04T01:53:07.222Z,94903.41
2018-12-04T01:55:34.139Z,94904.76
2018-12-04T01:58:01.050Z,94905.61
2018-12-04T02:00:27.963Z,94903.09
2018-12-04T02:02:54.880Z,94900.48
2018-12-04T02:05:21.781Z,94894.52
2018-12-04T02:07:48.698Z,94891.28
2018-12-04T02:10:15.606Z,94895.09
2018-12-04T02:12:42.526Z,94894.05
2018-12-04T02:15:09.445Z,94889.80
2018-12-04T02:17:36.356Z,94895.00
2018-12-04T02:20:03.286Z,94898.24
2018-12-04T02:22:30.186Z,94893.44
2018-12-04T02:24:57.109Z,94899.52
2018-12-04T02:27:24.031Z,94903.41
2018-12-04T02:29:50.932Z,94902.22
2018-12-04T02:32:17.861Z,94896.83
2018-12-04T02:34:44.776Z,94897.08
2018-12-04T02:37:11.681Z,94896.68
2018-12-04T02:39:38.604Z,94892.79
2018-12-04T02:42:05.523Z,94895.73
2018-12-04T02:44:32.421Z,94891.30
2018-12-04T02:46:59.348Z,94888.20
2018-12-04T02:49:26.255Z,94890.89
2018-12-04T02:51:53.167Z,94888.05
2018-12-04T02:54:20.088Z,94887.47
2018-12-04T02:56:46.996Z,94884.41
2018-12-04T02:59:13.953Z,94883.83
2018-12-04T03:01:40.852Z,94885.91
2018-12-04T03:04:07.764Z,94888.81
2018-12-04T03:06:34.677Z,94884.16
2018-12-04T03:09:01.596Z,94887.25
2018-12-04T03:11:28.502Z,94886.30
2018-12-04T03:13:55.420Z,94884.41
2018-12-04T03:16:22.342Z,94888.81
2018-12-04T03:18:49.256Z,94885.36
2018-12-04T03:21:16.236Z,94883.42
2018-12-04T03:23:43.154Z,94876.88
2018-12-04T03:26:10.059Z,94882.48
2018-12-04T03:28:36.979Z,94880.73
2018-12-04T03:31:03.883Z,94882.27
2018-12-04T03:33:30.801Z,94880.12
2018-12-04T03:35:57.726Z,94881.06
2018-12-04T03:38:24.636Z,94885.91
2018-12-04T03:40:51.560Z,94875.68
2018-12-04T03:43:18.490Z,94884.16
2018-12-04T03:45:45.396Z,94877.42
2018-12-04T03:48:12.318Z,94883.42
2018-12-04T03:50:39.233Z,94877.97
2018-12-04T03:53:06.140Z,94877.02
2018-12-04T03:55:34.408Z,94878.37
2018-12-04T03:57:59.975Z,94873.69
2018-12-04T04:00:26.903Z,94876.77
2018-12-04T04:02:53.825Z,94885.98
2018-12-04T04:05:20.740Z,94888.83
2018-12-04T04:07:47.656Z,94878.06
2018-12-04T04:10:14.563Z,94883.52
2018-12-04T04:12:41.474Z,94881.00
2018-12-04T04:15:08.400Z,94880.05
2018-12-04T04:17:35.303Z,94881.00
2018-12-04T04:20:02.271Z,94873.47
2018-12-04T04:22:29.192Z,94873.69
2018-12-04T04:24:56.101Z,94872.73
2018-12-04T04:27:23.029Z,94873.47
2018-12-04T04:29:49.932Z,94879.80
2018-12-04T04:32:16.852Z,94880.42
2018-12-04T04:34:43.775Z,94883.11
2018-12-04T04:37:10.671Z,94881.77
2018-12-04T04:39:37.593Z,94882.97
2018-12-04T04:42:04.556Z,94881.77
2018-12-04T04:44:31.470Z,94883.70
2018-12-04T04:46:58.388Z,94883.52
2018-12-04T04:49:25.296Z,94887.65
2018-12-04T04:51:52.238Z,94887.31
2018-12-04T04:54:19.154Z,94880.98
2018-12-04T04:56:46.058Z,94881.53
2018-12-04T04:59:13.018Z,94880.44
2018-12-04T05:01:39.941Z,94881.13
2018-12-04T05:04:06.848Z,94872.91
2018-12-04T05:06:33.774Z,94871.09
2018-12-04T05:09:00.675Z,94869.09
2018-12-04T05:11:27.582Z,94872.59
2018-12-04T05:13:54.502Z,94872.83
2018-12-04T05:16:21.405Z,94868.80
2018-12-04T05:18:48.337Z,94868.30
2018-12-04T05:21:15.253Z,94860.55
2018-12-04T05:23:42.158Z,94862.91
2018-12-04T05:26:09.083Z,94859.45
2018-12-04T05:28:35.990Z,94859.45
2018-12-04T05:31:03.444Z,94867.28
2018-12-04T05:33:30.364Z,94869.58
2018-12-04T05:35:57.301Z,94866.42
2018-12-04T05:38:24.221Z,94872.91
2018-12-04T05:40:51.136Z,94866.03
2018-12-04T05:43:18.047Z,94868.63
2018-12-04T05:45:44.987Z,94861.02
2018-12-04T05:48:11.899Z,94867.44
2018-12-04T05:50:38.823Z,94868.23
2018-12-04T05:53:05.751Z,94864.04
2018-12-04T05:55:32.667Z,94869.27
2018-12-04T05:57:59.602Z,94872.05
2018-12-04T06:00:26.546Z,94874.34
2018-12-04T06:02:53.506Z,94874.34
2018-12-04T06:05:20.433Z,94873.55
2018-12-04T06:07:47.347Z,94876.55
2018-12-04T06:10:14.261Z,94875.05
2018-12-04T06:12:41.197Z,94879.02
2018-12-04T06:15:08.112Z,94882.27
2018-12-04T06:17:35.080Z,94884.55
2018-12-04T06:20:02.005Z,94889.86
2018-12-04T06:22:28.912Z,94891.36
2018-12-04T06:24:55.848Z,94891.85
2018-12-04T06:27:22.766Z,94890.98
2018-12-04T06:29:49.689Z,94896.19
